Thomas G. Thompson — KTDQ — position and weather

sailwx.info

Track history (hours):
 
Tides and Currents Weather Stations Pressure Air Temp Water Temp Dewpoint Dewpoint Depression Visibility Wind Speed Wind Dir Waves Ship Positions

Oceanographic research ship Thomas G. Thompson (USA)

Ship's website: http://www.ocean.washington.edu/vessels/TGT/tgt.html

Detailed information on ship capabilities available from University of Delaware's Ocean Information Center.

Owner: UNIVERSITY OF WASHINGTON, SEATTLE, WA. More information available from US FCC via Universal Licensing System and Coast Guard Vessel Documentation Center.

Last reported at 2014-Oct-20 01:28 UTC. Time now 2014-Oct-21 15:18 UTC.
Position N 47°39' W 122°19'.

Type: Other ship. MMSI: 366345000.

Date/timePositionNaut miles runAvg speedWind from/ knotsBaromVisibWave heightAir tempDewpointWater temp
2014-Oct-20 01:28N 47°39' W 122°19'2 2.5
2014-Oct-20 00:33N 47°39' W 122°22'2 1.5
2014-Oct-19 23:33N 47°40' W 122°24'3 3.4
2014-Oct-19 22:33N 47°43' W 122°25'0 0.1
2014-Oct-19 21:33N 47°43' W 122°25'2 2.4
2014-Oct-19 20:33N 47°46' W 122°27'1111.1
2014-Oct-19 19:33N 47°56' W 122°32'1312.6
2014-Oct-19 18:30N 48°08' W 122°42'1212.5
2014-Oct-19 17:33N 48°12' W 122°59'1313.4
2014-Oct-19 16:33N 48°13' W 123°19'1312.9
2014-Oct-19 15:32N 48°13' W 123°39'1212.0
2014-Oct-19 14:32N 48°14' W 123°57'1312.9
2014-Oct-19 13:33N 48°19' W 124°14'1211.8
2014-Oct-19 12:33N 48°24' W 124°30'1211.4
2014-Oct-19 11:33N 48°29' W 124°46'  
2014-Oct-11 11:29N 48°22' W 125°12'1011.3
2014-Oct-11 10:33N 48°30' W 125°01'1111.4
2014-Oct-11 09:34N 48°31' W 124°44'1212.1
2014-Oct-11 08:34N 48°26' W 124°27'1312.9
2014-Oct-11 07:33N 48°21' W 124°09'1413.8
2014-Oct-11 06:33N 48°17' W 123°49'1616.2
2014-Oct-11 05:34N 48°15' W 123°25'1514.8
2014-Oct-11 04:32N 48°13' W 123°03'1714.1
2014-Oct-11 03:20N 48°06' W 122°39'1114.1
2014-Oct-11 02:33N 47°57' W 122°32'1312.6
2014-Oct-11 01:34N 47°45' W 122°25'1 1.3
2014-Oct-11 00:34N 47°43' W 122°25'0 0.0
2014-Oct-10 23:34N 47°43' W 122°25'0 0.0
2014-Oct-10 22:33N 47°43' W 122°25'0 0.0
2014-Oct-10 21:33N 47°43' W 122°25'0 0.0
2014-Oct-10 20:34N 47°43' W 122°25'0 0.0
2014-Oct-10 19:34N 47°43' W 122°25'4 3.5
2014-Oct-10 18:33N 47°40' W 122°24'1 0.5
2014-Oct-10 17:33N 47°40' W 122°23'2 1.8
2014-Oct-10 16:34N 47°39' W 122°21'  
Track history (hours):
 
Tides and Currents Weather Stations Pressure Air Temp Water Temp Dewpoint Dewpoint Depression Visibility Wind Speed Wind Dir Waves Ship Positions

Oceanographic research ship Thomas G. Thompson (USA)

Ship's website: http://www.ocean.washington.edu/vessels/TGT/tgt.html

Detailed information on ship capabilities available from University of Delaware's Ocean Information Center.

Owner: UNIVERSITY OF WASHINGTON, SEATTLE, WA. More information available from US FCC via Universal Licensing System and Coast Guard Vessel Documentation Center.

Last reported at 2014-Oct-20 01:28 UTC. Time now 2014-Oct-21 15:18 UTC.
Position N 47°39' W 122°19'.

Type: Other ship. MMSI: 366345000.

Date/timePositionNaut miles runAvg speedWind from/ knotsBaromVisibWave heightAir tempDewpointWater temp
2014-Oct-20 01:28N 47°39' W 122°19'2 2.5
2014-Oct-20 00:33N 47°39' W 122°22'2 1.5
2014-Oct-19 23:33N 47°40' W 122°24'3 3.4
2014-Oct-19 22:33N 47°43' W 122°25'0 0.1
2014-Oct-19 21:33N 47°43' W 122°25'2 2.4
2014-Oct-19 20:33N 47°46' W 122°27'1111.1
2014-Oct-19 19:33N 47°56' W 122°32'1312.6
2014-Oct-19 18:30N 48°08' W 122°42'1212.5
2014-Oct-19 17:33N 48°12' W 122°59'1313.4
2014-Oct-19 16:33N 48°13' W 123°19'1312.9
2014-Oct-19 15:32N 48°13' W 123°39'1212.0
2014-Oct-19 14:32N 48°14' W 123°57'1312.9
2014-Oct-19 13:33N 48°19' W 124°14'1211.8
2014-Oct-19 12:33N 48°24' W 124°30'1211.4
2014-Oct-19 11:33N 48°29' W 124°46'  
2014-Oct-11 11:29N 48°22' W 125°12'1011.3
2014-Oct-11 10:33N 48°30' W 125°01'1111.4
2014-Oct-11 09:34N 48°31' W 124°44'1212.1
2014-Oct-11 08:34N 48°26' W 124°27'1312.9
2014-Oct-11 07:33N 48°21' W 124°09'1413.8
2014-Oct-11 06:33N 48°17' W 123°49'1616.2
2014-Oct-11 05:34N 48°15' W 123°25'1514.8
2014-Oct-11 04:32N 48°13' W 123°03'1714.1
2014-Oct-11 03:20N 48°06' W 122°39'1114.1
2014-Oct-11 02:33N 47°57' W 122°32'1312.6
2014-Oct-11 01:34N 47°45' W 122°25'1 1.3
2014-Oct-11 00:34N 47°43' W 122°25'0 0.0
2014-Oct-10 23:34N 47°43' W 122°25'0 0.0
2014-Oct-10 22:33N 47°43' W 122°25'0 0.0
2014-Oct-10 21:33N 47°43' W 122°25'0 0.0
2014-Oct-10 20:34N 47°43' W 122°25'0 0.0
2014-Oct-10 19:34N 47°43' W 122°25'4 3.5
2014-Oct-10 18:33N 47°40' W 122°24'1 0.5
2014-Oct-10 17:33N 47°40' W 122°23'2 1.8
2014-Oct-10 16:34N 47°39' W 122°21'  

Dump ship's entire track history